sensor_id;sensor_type;location;lat;lon;timestamp;P1;durP1;ratioP1;P2;durP2;ratioP2
66163;SDS011;52962;51.088;3.096;2023-07-02T00:00:23;8.10;;;3.95;;
66163;SDS011;52962;51.088;3.096;2023-07-02T00:02:51;3.95;;;2.85;;
66163;SDS011;52962;51.088;3.096;2023-07-02T00:05:19;7.50;;;3.75;;
66163;SDS011;52962;51.088;3.096;2023-07-02T00:07:47;4.95;;;3.72;;
66163;SDS011;52962;51.088;3.096;2023-07-02T00:12:44;5.68;;;3.35;;
66163;SDS011;52962;51.088;3.096;2023-07-02T00:15:12;7.38;;;4.15;;
66163;SDS011;52962;51.088;3.096;2023-07-02T00:17:42;5.07;;;3.55;;
66163;SDS011;52962;51.088;3.096;2023-07-02T00:20:10;7.10;;;3.65;;
66163;SDS011;52962;51.088;3.096;2023-07-02T00:22:42;7.43;;;3.85;;
66163;SDS011;52962;51.088;3.096;2023-07-02T00:25:13;6.22;;;3.45;;
66163;SDS011;52962;51.088;3.096;2023-07-02T00:27:42;5.00;;;3.72;;
66163;SDS011;52962;51.088;3.096;2023-07-02T00:30:10;3.50;;;3.05;;
66163;SDS011;52962;51.088;3.096;2023-07-02T00:32:39;10.48;;;4.28;;
66163;SDS011;52962;51.088;3.096;2023-07-02T00:35:09;4.25;;;3.85;;
66163;SDS011;52962;51.088;3.096;2023-07-02T00:37:37;5.47;;;3.67;;
66163;SDS011;52962;51.088;3.096;2023-07-02T00:40:06;8.55;;;3.13;;
66163;SDS011;52962;51.088;3.096;2023-07-02T00:42:35;5.85;;;3.47;;
66163;SDS011;52962;51.088;3.096;2023-07-02T00:45:03;4.78;;;2.88;;
66163;SDS011;52962;51.088;3.096;2023-07-02T00:47:33;4.15;;;3.35;;
66163;SDS011;52962;51.088;3.096;2023-07-02T00:50:03;6.72;;;3.42;;
66163;SDS011;52962;51.088;3.096;2023-07-02T00:52:34;7.95;;;4.38;;
66163;SDS011;52962;51.088;3.096;2023-07-02T00:55:03;5.25;;;3.28;;
66163;SDS011;52962;51.088;3.096;2023-07-02T00:57:31;4.53;;;3.50;;
66163;SDS011;52962;51.088;3.096;2023-07-02T01:00:00;3.53;;;3.17;;
66163;SDS011;52962;51.088;3.096;2023-07-02T01:02:29;4.82;;;3.20;;
66163;SDS011;52962;51.088;3.096;2023-07-02T01:04:58;4.38;;;3.33;;
66163;SDS011;52962;51.088;3.096;2023-07-02T01:07:28;3.92;;;2.90;;
66163;SDS011;52962;51.088;3.096;2023-07-02T01:09:58;8.27;;;3.33;;
66163;SDS011;52962;51.088;3.096;2023-07-02T01:12:26;6.35;;;4.03;;
66163;SDS011;52962;51.088;3.096;2023-07-02T01:14:56;4.28;;;2.90;;
66163;SDS011;52962;51.088;3.096;2023-07-02T01:17:30;4.50;;;3.17;;
66163;SDS011;52962;51.088;3.096;2023-07-02T01:20:08;4.50;;;2.55;;
66163;SDS011;52962;51.088;3.096;2023-07-02T01:22:37;4.63;;;3.22;;
66163;SDS011;52962;51.088;3.096;2023-07-02T01:25:06;3.55;;;3.00;;
66163;SDS011;52962;51.088;3.096;2023-07-02T01:27:36;3.08;;;2.60;;
66163;SDS011;52962;51.088;3.096;2023-07-02T01:30:06;6.22;;;2.97;;
66163;SDS011;52962;51.088;3.096;2023-07-02T01:32:37;4.75;;;2.90;;
66163;SDS011;52962;51.088;3.096;2023-07-02T01:35:08;4.55;;;3.08;;
66163;SDS011;52962;51.088;3.096;2023-07-02T01:37:36;8.88;;;3.67;;
66163;SDS011;52962;51.088;3.096;2023-07-02T01:40:05;6.43;;;3.75;;
66163;SDS011;52962;51.088;3.096;2023-07-02T01:42:35;6.28;;;3.42;;
66163;SDS011;52962;51.088;3.096;2023-07-02T01:45:03;3.83;;;3.28;;
66163;SDS011;52962;51.088;3.096;2023-07-02T01:47:32;8.18;;;3.88;;
66163;SDS011;52962;51.088;3.096;2023-07-02T01:50:03;5.57;;;3.15;;
66163;SDS011;52962;51.088;3.096;2023-07-02T01:52:33;3.72;;;2.97;;
66163;SDS011;52962;51.088;3.096;2023-07-02T01:55:02;4.72;;;2.72;;
66163;SDS011;52962;51.088;3.096;2023-07-02T01:57:31;2.95;;;2.63;;
66163;SDS011;52962;51.088;3.096;2023-07-02T02:02:27;2.45;;;2.22;;
66163;SDS011;52962;51.088;3.096;2023-07-02T02:04:55;5.15;;;3.25;;
66163;SDS011;52962;51.088;3.096;2023-07-02T02:07:24;10.68;;;3.05;;
66163;SDS011;52962;51.088;3.096;2023-07-02T02:09:54;3.15;;;2.30;;
66163;SDS011;52962;51.088;3.096;2023-07-02T02:12:23;8.55;;;3.72;;
66163;SDS011;52962;51.088;3.096;2023-07-02T02:14:51;5.43;;;2.35;;
66163;SDS011;52962;51.088;3.096;2023-07-02T02:17:19;2.33;;;2.13;;
66163;SDS011;52962;51.088;3.096;2023-07-02T02:19:48;1.83;;;1.73;;
66163;SDS011;52962;51.088;3.096;2023-07-02T02:22:17;6.18;;;3.10;;
66163;SDS011;52962;51.088;3.096;2023-07-02T02:24:45;3.33;;;3.05;;
66163;SDS011;52962;51.088;3.096;2023-07-02T02:27:14;3.45;;;2.90;;
66163;SDS011;52962;51.088;3.096;2023-07-02T02:29:43;10.45;;;3.75;;
66163;SDS011;52962;51.088;3.096;2023-07-02T02:32:11;4.43;;;2.72;;
66163;SDS011;52962;51.088;3.096;2023-07-02T02:34:39;4.43;;;2.75;;
66163;SDS011;52962;51.088;3.096;2023-07-02T02:37:08;2.53;;;2.33;;
66163;SDS011;52962;51.088;3.096;2023-07-02T02:39:36;6.20;;;2.10;;
66163;SDS011;52962;51.088;3.096;2023-07-02T02:42:05;4.05;;;3.33;;
66163;SDS011;52962;51.088;3.096;2023-07-02T02:44:35;11.57;;;3.30;;
66163;SDS011;52962;51.088;3.096;2023-07-02T02:47:03;6.07;;;2.55;;
66163;SDS011;52962;51.088;3.096;2023-07-02T02:49:32;2.17;;;1.98;;
66163;SDS011;52962;51.088;3.096;2023-07-02T02:52:00;4.47;;;2.60;;
66163;SDS011;52962;51.088;3.096;2023-07-02T02:56:57;3.42;;;2.42;;
66163;SDS011;52962;51.088;3.096;2023-07-02T03:01:54;3.40;;;2.45;;
66163;SDS011;52962;51.088;3.096;2023-07-02T03:04:22;4.97;;;2.28;;
66163;SDS011;52962;51.088;3.096;2023-07-02T03:06:52;3.15;;;2.53;;
66163;SDS011;52962;51.088;3.096;2023-07-02T03:09:20;4.07;;;1.85;;
66163;SDS011;52962;51.088;3.096;2023-07-02T03:11:48;6.30;;;3.45;;
66163;SDS011;52962;51.088;3.096;2023-07-02T03:14:17;2.35;;;2.15;;
66163;SDS011;52962;51.088;3.096;2023-07-02T03:16:45;4.80;;;2.00;;
66163;SDS011;52962;51.088;3.096;2023-07-02T03:19:15;2.45;;;2.22;;
66163;SDS011;52962;51.088;3.096;2023-07-02T03:21:43;6.63;;;2.78;;
66163;SDS011;52962;51.088;3.096;2023-07-02T03:24:11;4.15;;;1.90;;
66163;SDS011;52962;51.088;3.096;2023-07-02T03:26:40;6.18;;;3.00;;
66163;SDS011;52962;51.088;3.096;2023-07-02T03:29:09;4.93;;;2.70;;
66163;SDS011;52962;51.088;3.096;2023-07-02T03:31:37;3.22;;;2.75;;
66163;SDS011;52962;51.088;3.096;2023-07-02T03:34:06;4.68;;;3.35;;
66163;SDS011;52962;51.088;3.096;2023-07-02T03:36:37;2.35;;;2.08;;
66163;SDS011;52962;51.088;3.096;2023-07-02T03:39:06;5.70;;;2.50;;
66163;SDS011;52962;51.088;3.096;2023-07-02T03:41:36;2.58;;;2.38;;
66163;SDS011;52962;51.088;3.096;2023-07-02T03:44:04;3.40;;;2.70;;
66163;SDS011;52962;51.088;3.096;2023-07-02T03:46:33;5.78;;;3.15;;
66163;SDS011;52962;51.088;3.096;2023-07-02T03:49:03;3.17;;;2.88;;
66163;SDS011;52962;51.088;3.096;2023-07-02T03:51:31;2.28;;;1.95;;
66163;SDS011;52962;51.088;3.096;2023-07-02T03:54:01;2.97;;;2.70;;
66163;SDS011;52962;51.088;3.096;2023-07-02T03:56:29;3.45;;;1.95;;
66163;SDS011;52962;51.088;3.096;2023-07-02T03:58:57;2.35;;;2.05;;
66163;SDS011;52962;51.088;3.096;2023-07-02T04:01:25;2.90;;;2.30;;
66163;SDS011;52962;51.088;3.096;2023-07-02T04:03:54;2.90;;;1.73;;
66163;SDS011;52962;51.088;3.096;2023-07-02T04:06:23;3.55;;;1.52;;
66163;SDS011;52962;51.088;3.096;2023-07-02T04:08:51;2.08;;;1.88;;
66163;SDS011;52962;51.088;3.096;2023-07-02T04:13:49;2.28;;;1.95;;
66163;SDS011;52962;51.088;3.096;2023-07-02T04:16:17;1.92;;;1.67;;
66163;SDS011;52962;51.088;3.096;2023-07-02T04:18:45;1.83;;;1.55;;
66163;SDS011;52962;51.088;3.096;2023-07-02T04:21:14;4.28;;;1.60;;
66163;SDS011;52962;51.088;3.096;2023-07-02T04:26:10;1.27;;;1.20;;
66163;SDS011;52962;51.088;3.096;2023-07-02T04:29:00;1.85;;;1.75;;
66163;SDS011;52962;51.088;3.096;2023-07-02T04:31:28;3.28;;;2.28;;
66163;SDS011;52962;51.088;3.096;2023-07-02T04:33:57;1.40;;;1.30;;
66163;SDS011;52962;51.088;3.096;2023-07-02T04:36:26;1.35;;;1.13;;
66163;SDS011;52962;51.088;3.096;2023-07-02T04:38:55;1.45;;;1.02;;
66163;SDS011;52962;51.088;3.096;2023-07-02T04:41:23;2.10;;;1.85;;
66163;SDS011;52962;51.088;3.096;2023-07-02T04:43:51;1.30;;;1.20;;
66163;SDS011;52962;51.088;3.096;2023-07-02T04:46:21;2.88;;;1.92;;
66163;SDS011;52962;51.088;3.096;2023-07-02T04:48:49;1.63;;;1.25;;
66163;SDS011;52962;51.088;3.096;2023-07-02T04:51:19;3.80;;;1.85;;
66163;SDS011;52962;51.088;3.096;2023-07-02T04:53:49;1.63;;;1.40;;
66163;SDS011;52962;51.088;3.096;2023-07-02T04:58:45;1.55;;;1.25;;
66163;SDS011;52962;51.088;3.096;2023-07-02T05:01:13;3.75;;;1.40;;
66163;SDS011;52962;51.088;3.096;2023-07-02T05:03:43;1.70;;;1.60;;
66163;SDS011;52962;51.088;3.096;2023-07-02T05:06:11;2.28;;;1.52;;
66163;SDS011;52962;51.088;3.096;2023-07-02T05:11:08;3.00;;;1.58;;
66163;SDS011;52962;51.088;3.096;2023-07-02T05:13:36;0.80;;;0.70;;
66163;SDS011;52962;51.088;3.096;2023-07-02T05:16:05;1.48;;;1.38;;
66163;SDS011;52962;51.088;3.096;2023-07-02T05:18:33;1.27;;;1.13;;
66163;SDS011;52962;51.088;3.096;2023-07-02T05:21:03;1.75;;;1.58;;
66163;SDS011;52962;51.088;3.096;2023-07-02T05:23:31;0.95;;;0.95;;
66163;SDS011;52962;51.088;3.096;2023-07-02T05:25:59;2.15;;;1.40;;
66163;SDS011;52962;51.088;3.096;2023-07-02T05:28:27;1.92;;;1.77;;
66163;SDS011;52962;51.088;3.096;2023-07-02T05:30:55;1.17;;;1.05;;
66163;SDS011;52962;51.088;3.096;2023-07-02T05:33:24;1.92;;;1.60;;
66163;SDS011;52962;51.088;3.096;2023-07-02T05:35:52;2.25;;;1.27;;
66163;SDS011;52962;51.088;3.096;2023-07-02T05:38:21;1.58;;;1.30;;
66163;SDS011;52962;51.088;3.096;2023-07-02T05:40:50;2.05;;;1.90;;
66163;SDS011;52962;51.088;3.096;2023-07-02T05:43:19;2.50;;;1.67;;
66163;SDS011;52962;51.088;3.096;2023-07-02T05:45:47;3.35;;;1.75;;
66163;SDS011;52962;51.088;3.096;2023-07-02T05:48:15;1.70;;;1.60;;
66163;SDS011;52962;51.088;3.096;2023-07-02T05:50:43;2.22;;;1.63;;
66163;SDS011;52962;51.088;3.096;2023-07-02T05:53:12;2.78;;;1.73;;
66163;SDS011;52962;51.088;3.096;2023-07-02T05:55:41;1.88;;;1.70;;
66163;SDS011;52962;51.088;3.096;2023-07-02T05:58:10;1.27;;;1.17;;
66163;SDS011;52962;51.088;3.096;2023-07-02T06:00:38;3.30;;;1.73;;
66163;SDS011;52962;51.088;3.096;2023-07-02T06:03:08;2.30;;;2.05;;
66163;SDS011;52962;51.088;3.096;2023-07-02T06:05:36;4.90;;;2.13;;
66163;SDS011;52962;51.088;3.096;2023-07-02T06:08:04;2.05;;;1.75;;
66163;SDS011;52962;51.088;3.096;2023-07-02T06:10:33;3.30;;;1.92;;
66163;SDS011;52962;51.088;3.096;2023-07-02T06:13:03;1.95;;;1.45;;
66163;SDS011;52962;51.088;3.096;2023-07-02T06:15:31;2.55;;;1.58;;
66163;SDS011;52962;51.088;3.096;2023-07-02T06:17:59;2.22;;;1.92;;
66163;SDS011;52962;51.088;3.096;2023-07-02T06:20:28;2.50;;;2.30;;
66163;SDS011;52962;51.088;3.096;2023-07-02T06:22:56;4.00;;;1.90;;
66163;SDS011;52962;51.088;3.096;2023-07-02T06:25:24;3.97;;;1.92;;
66163;SDS011;52962;51.088;3.096;2023-07-02T06:27:53;3.17;;;1.75;;
66163;SDS011;52962;51.088;3.096;2023-07-02T06:30:23;4.15;;;1.75;;
66163;SDS011;52962;51.088;3.096;2023-07-02T06:32:51;1.48;;;1.38;;
66163;SDS011;52962;51.088;3.096;2023-07-02T06:35:22;2.63;;;1.95;;
66163;SDS011;52962;51.088;3.096;2023-07-02T06:37:50;4.35;;;2.40;;
66163;SDS011;52962;51.088;3.096;2023-07-02T06:40:18;3.28;;;2.97;;
66163;SDS011;52962;51.088;3.096;2023-07-02T06:42:47;4.35;;;2.58;;
66163;SDS011;52962;51.088;3.096;2023-07-02T06:45:15;3.47;;;2.70;;
66163;SDS011;52962;51.088;3.096;2023-07-02T06:47:45;3.78;;;2.40;;
66163;SDS011;52962;51.088;3.096;2023-07-02T06:50:13;3.80;;;2.72;;
66163;SDS011;52962;51.088;3.096;2023-07-02T06:52:42;4.82;;;3.40;;
66163;SDS011;52962;51.088;3.096;2023-07-02T06:55:11;4.50;;;2.60;;
66163;SDS011;52962;51.088;3.096;2023-07-02T06:57:43;3.70;;;2.63;;
66163;SDS011;52962;51.088;3.096;2023-07-02T07:00:12;3.83;;;2.97;;
66163;SDS011;52962;51.088;3.096;2023-07-02T07:02:42;4.03;;;2.25;;
66163;SDS011;52962;51.088;3.096;2023-07-02T07:05:12;2.85;;;2.60;;
66163;SDS011;52962;51.088;3.096;2023-07-02T07:07:41;2.72;;;2.53;;
66163;SDS011;52962;51.088;3.096;2023-07-02T07:10:10;6.43;;;2.65;;
66163;SDS011;52962;51.088;3.096;2023-07-02T07:12:39;3.65;;;2.33;;
66163;SDS011;52962;51.088;3.096;2023-07-02T07:15:08;3.22;;;2.47;;
66163;SDS011;52962;51.088;3.096;2023-07-02T07:17:38;7.70;;;2.67;;
66163;SDS011;52962;51.088;3.096;2023-07-02T07:20:07;3.25;;;2.67;;
66163;SDS011;52962;51.088;3.096;2023-07-02T07:22:37;4.38;;;2.03;;
66163;SDS011;52962;51.088;3.096;2023-07-02T07:25:07;1.77;;;1.60;;
66163;SDS011;52962;51.088;3.096;2023-07-02T07:27:36;2.88;;;1.67;;
66163;SDS011;52962;51.088;3.096;2023-07-02T07:30:05;6.88;;;2.00;;
66163;SDS011;52962;51.088;3.096;2023-07-02T07:32:34;3.58;;;1.45;;
66163;SDS011;52962;51.088;3.096;2023-07-02T07:35:02;3.05;;;1.48;;
66163;SDS011;52962;51.088;3.096;2023-07-02T07:37:31;1.38;;;1.27;;
66163;SDS011;52962;51.088;3.096;2023-07-02T07:40:01;5.10;;;2.17;;
66163;SDS011;52962;51.088;3.096;2023-07-02T07:42:30;3.35;;;1.73;;
66163;SDS011;52962;51.088;3.096;2023-07-02T07:44:58;6.05;;;1.85;;
66163;SDS011;52962;51.088;3.096;2023-07-02T07:47:26;2.72;;;2.05;;
66163;SDS011;52962;51.088;3.096;2023-07-02T07:49:55;2.50;;;1.73;;
66163;SDS011;52962;51.088;3.096;2023-07-02T07:52:23;1.63;;;1.25;;
66163;SDS011;52962;51.088;3.096;2023-07-02T07:54:51;3.17;;;1.73;;
66163;SDS011;52962;51.088;3.096;2023-07-02T07:57:22;3.70;;;0.95;;
66163;SDS011;52962;51.088;3.096;2023-07-02T07:59:51;2.10;;;1.98;;
66163;SDS011;52962;51.088;3.096;2023-07-02T08:02:19;3.20;;;2.17;;
66163;SDS011;52962;51.088;3.096;2023-07-02T08:04:49;1.35;;;1.17;;
66163;SDS011;52962;51.088;3.096;2023-07-02T08:07:18;3.88;;;1.60;;
66163;SDS011;52962;51.088;3.096;2023-07-02T08:09:47;4.60;;;2.10;;
66163;SDS011;52962;51.088;3.096;2023-07-02T08:12:16;2.95;;;1.83;;
66163;SDS011;52962;51.088;3.096;2023-07-02T08:14:45;3.88;;;1.67;;
66163;SDS011;52962;51.088;3.096;2023-07-02T08:17:14;3.53;;;2.38;;
66163;SDS011;52962;51.088;3.096;2023-07-02T08:19:42;1.85;;;1.48;;
66163;SDS011;52962;51.088;3.096;2023-07-02T08:22:10;4.85;;;2.13;;
66163;SDS011;52962;51.088;3.096;2023-07-02T08:24:38;1.70;;;1.25;;
66163;SDS011;52962;51.088;3.096;2023-07-02T08:27:09;4.85;;;1.92;;
66163;SDS011;52962;51.088;3.096;2023-07-02T08:29:40;2.35;;;1.52;;
66163;SDS011;52962;51.088;3.096;2023-07-02T08:32:10;1.70;;;1.15;;
66163;SDS011;52962;51.088;3.096;2023-07-02T08:34:38;2.10;;;1.77;;
66163;SDS011;52962;51.088;3.096;2023-07-02T08:37:07;4.13;;;1.23;;
66163;SDS011;52962;51.088;3.096;2023-07-02T08:39:35;1.10;;;1.05;;
66163;SDS011;52962;51.088;3.096;2023-07-02T08:42:06;2.05;;;1.80;;
66163;SDS011;52962;51.088;3.096;2023-07-02T08:44:35;2.03;;;1.70;;
66163;SDS011;52962;51.088;3.096;2023-07-02T08:47:04;2.22;;;1.67;;
66163;SDS011;52962;51.088;3.096;2023-07-02T08:49:34;2.67;;;2.05;;
66163;SDS011;52962;51.088;3.096;2023-07-02T08:52:03;4.40;;;2.00;;
66163;SDS011;52962;51.088;3.096;2023-07-02T08:54:32;1.73;;;1.63;;
66163;SDS011;52962;51.088;3.096;2023-07-02T08:57:01;2.42;;;1.35;;
66163;SDS011;52962;51.088;3.096;2023-07-02T08:59:32;5.63;;;1.73;;
66163;SDS011;52962;51.088;3.096;2023-07-02T09:02:00;2.60;;;1.77;;
66163;SDS011;52962;51.088;3.096;2023-07-02T09:04:29;4.60;;;1.95;;
66163;SDS011;52962;51.088;3.096;2023-07-02T09:07:05;2.55;;;1.65;;
66163;SDS011;52962;51.088;3.096;2023-07-02T09:09:43;2.22;;;1.65;;
66163;SDS011;52962;51.088;3.096;2023-07-02T09:12:23;5.60;;;2.97;;
66163;SDS011;52962;51.088;3.096;2023-07-02T09:14:55;3.90;;;1.98;;
66163;SDS011;52962;51.088;3.096;2023-07-02T09:17:28;3.20;;;1.63;;
66163;SDS011;52962;51.088;3.096;2023-07-02T09:19:58;1.73;;;1.50;;
66163;SDS011;52962;51.088;3.096;2023-07-02T09:22:30;2.10;;;1.23;;
66163;SDS011;52962;51.088;3.096;2023-07-02T09:24:58;5.18;;;1.33;;
66163;SDS011;52962;51.088;3.096;2023-07-02T09:27:33;3.42;;;1.50;;
66163;SDS011;52962;51.088;3.096;2023-07-02T09:30:07;4.32;;;2.28;;
66163;SDS011;52962;51.088;3.096;2023-07-02T09:32:36;3.78;;;1.75;;
66163;SDS011;52962;51.088;3.096;2023-07-02T09:35:05;1.75;;;1.20;;
66163;SDS011;52962;51.088;3.096;2023-07-02T09:37:35;2.92;;;1.20;;
66163;SDS011;52962;51.088;3.096;2023-07-02T09:40:04;3.03;;;1.70;;
66163;SDS011;52962;51.088;3.096;2023-07-02T09:42:35;1.58;;;1.42;;
66163;SDS011;52962;51.088;3.096;2023-07-02T09:45:07;1.60;;;1.10;;
66163;SDS011;52962;51.088;3.096;2023-07-02T09:47:38;1.75;;;1.65;;
66163;SDS011;52962;51.088;3.096;2023-07-02T09:50:12;1.88;;;1.40;;
66163;SDS011;52962;51.088;3.096;2023-07-02T09:52:43;1.70;;;1.60;;
66163;SDS011;52962;51.088;3.096;2023-07-02T09:55:12;2.75;;;1.27;;
66163;SDS011;52962;51.088;3.096;2023-07-02T09:57:43;1.70;;;1.35;;
66163;SDS011;52962;51.088;3.096;2023-07-02T10:00:13;1.38;;;1.27;;
66163;SDS011;52962;51.088;3.096;2023-07-02T10:02:47;1.08;;;0.98;;
66163;SDS011;52962;51.088;3.096;2023-07-02T10:05:24;3.65;;;1.45;;
66163;SDS011;52962;51.088;3.096;2023-07-02T10:07:55;3.80;;;1.05;;
66163;SDS011;52962;51.088;3.096;2023-07-02T10:10:27;1.75;;;1.45;;
66163;SDS011;52962;51.088;3.096;2023-07-02T10:12:56;2.35;;;1.35;;
66163;SDS011;52962;51.088;3.096;2023-07-02T10:15:25;1.23;;;0.80;;
66163;SDS011;52962;51.088;3.096;2023-07-02T10:17:54;1.60;;;1.50;;
66163;SDS011;52962;51.088;3.096;2023-07-02T10:20:33;2.17;;;1.35;;
66163;SDS011;52962;51.088;3.096;2023-07-02T10:23:04;1.45;;;1.35;;
66163;SDS011;52962;51.088;3.096;2023-07-02T10:25:33;1.65;;;1.20;;
66163;SDS011;52962;51.088;3.096;2023-07-02T10:28:13;1.38;;;1.17;;
66163;SDS011;52962;51.088;3.096;2023-07-02T10:30:43;1.35;;;1.17;;
66163;SDS011;52962;51.088;3.096;2023-07-02T10:33:12;0.98;;;0.95;;
66163;SDS011;52962;51.088;3.096;2023-07-02T10:35:42;1.95;;;1.25;;
66163;SDS011;52962;51.088;3.096;2023-07-02T10:38:17;3.05;;;1.25;;
66163;SDS011;52962;51.088;3.096;2023-07-02T10:40:48;4.07;;;1.15;;
66163;SDS011;52962;51.088;3.096;2023-07-02T10:43:26;1.85;;;1.70;;
66163;SDS011;52962;51.088;3.096;2023-07-02T10:45:56;3.63;;;1.67;;
66163;SDS011;52962;51.088;3.096;2023-07-02T10:48:27;2.40;;;1.42;;
66163;SDS011;52962;51.088;3.096;2023-07-02T10:50:56;3.70;;;1.58;;
66163;SDS011;52962;51.088;3.096;2023-07-02T10:53:26;2.60;;;1.63;;
66163;SDS011;52962;51.088;3.096;2023-07-02T10:55:55;2.75;;;1.52;;
66163;SDS011;52962;51.088;3.096;2023-07-02T10:58:26;3.13;;;1.67;;
66163;SDS011;52962;51.088;3.096;2023-07-02T11:00:55;2.25;;;1.08;;
66163;SDS011;52962;51.088;3.096;2023-07-02T11:03:24;2.05;;;1.48;;
66163;SDS011;52962;51.088;3.096;2023-07-02T11:05:54;1.50;;;1.05;;
66163;SDS011;52962;51.088;3.096;2023-07-02T11:08:23;1.65;;;1.10;;
66163;SDS011;52962;51.088;3.096;2023-07-02T11:11:05;2.92;;;1.20;;
66163;SDS011;52962;51.088;3.096;2023-07-02T11:13:43;1.40;;;1.30;;
66163;SDS011;52962;51.088;3.096;2023-07-02T11:16:20;2.95;;;1.38;;
66163;SDS011;52962;51.088;3.096;2023-07-02T11:18:52;2.25;;;1.27;;
66163;SDS011;52962;51.088;3.096;2023-07-02T11:21:21;5.05;;;0.95;;
66163;SDS011;52962;51.088;3.096;2023-07-02T11:23:51;2.88;;;1.23;;
66163;SDS011;52962;51.088;3.096;2023-07-02T11:26:34;2.08;;;1.88;;
66163;SDS011;52962;51.088;3.096;2023-07-02T11:29:03;1.90;;;1.50;;
66163;SDS011;52962;51.088;3.096;2023-07-02T11:31:32;2.45;;;1.33;;
66163;SDS011;52962;51.088;3.096;2023-07-02T11:34:00;3.75;;;1.50;;
66163;SDS011;52962;51.088;3.096;2023-07-02T11:36:29;2.35;;;1.38;;
66163;SDS011;52962;51.088;3.096;2023-07-02T11:38:58;3.72;;;1.38;;
66163;SDS011;52962;51.088;3.096;2023-07-02T11:41:35;2.88;;;1.83;;
66163;SDS011;52962;51.088;3.096;2023-07-02T11:44:04;1.73;;;0.93;;
66163;SDS011;52962;51.088;3.096;2023-07-02T11:46:33;3.58;;;1.60;;
66163;SDS011;52962;51.088;3.096;2023-07-02T11:49:02;1.67;;;1.58;;
66163;SDS011;52962;51.088;3.096;2023-07-02T11:51:31;1.80;;;1.38;;
66163;SDS011;52962;51.088;3.096;2023-07-02T11:54:01;1.50;;;1.40;;
66163;SDS011;52962;51.088;3.096;2023-07-02T11:56:29;2.67;;;1.13;;
66163;SDS011;52962;51.088;3.096;2023-07-02T11:58:57;1.92;;;1.58;;
66163;SDS011;52962;51.088;3.096;2023-07-02T12:01:29;1.45;;;1.10;;
66163;SDS011;52962;51.088;3.096;2023-07-02T12:03:57;1.48;;;1.27;;
66163;SDS011;52962;51.088;3.096;2023-07-02T12:06:25;1.73;;;1.25;;
66163;SDS011;52962;51.088;3.096;2023-07-02T12:08:54;2.80;;;1.38;;
66163;SDS011;52962;51.088;3.096;2023-07-02T12:11:23;2.25;;;1.55;;
66163;SDS011;52962;51.088;3.096;2023-07-02T12:13:52;1.70;;;1.38;;
66163;SDS011;52962;51.088;3.096;2023-07-02T12:16:20;2.72;;;1.38;;
66163;SDS011;52962;51.088;3.096;2023-07-02T12:18:48;1.58;;;1.27;;
66163;SDS011;52962;51.088;3.096;2023-07-02T12:21:16;4.18;;;1.80;;
66163;SDS011;52962;51.088;3.096;2023-07-02T12:23:45;6.30;;;1.95;;
66163;SDS011;52962;51.088;3.096;2023-07-02T12:26:13;4.90;;;2.05;;
66163;SDS011;52962;51.088;3.096;2023-07-02T12:28:43;3.08;;;1.48;;
66163;SDS011;52962;51.088;3.096;2023-07-02T12:31:11;1.92;;;1.50;;
66163;SDS011;52962;51.088;3.096;2023-07-02T12:33:40;1.50;;;1.40;;
66163;SDS011;52962;51.088;3.096;2023-07-02T12:36:08;1.63;;;1.33;;
66163;SDS011;52962;51.088;3.096;2023-07-02T12:38:36;2.47;;;1.52;;
66163;SDS011;52962;51.088;3.096;2023-07-02T12:41:04;1.88;;;1.45;;
66163;SDS011;52962;51.088;3.096;2023-07-02T12:43:33;1.73;;;1.30;;
66163;SDS011;52962;51.088;3.096;2023-07-02T12:46:02;3.13;;;1.77;;
66163;SDS011;52962;51.088;3.096;2023-07-02T12:48:31;2.15;;;1.63;;
66163;SDS011;52962;51.088;3.096;2023-07-02T12:51:00;4.68;;;2.03;;
66163;SDS011;52962;51.088;3.096;2023-07-02T12:53:28;2.67;;;1.92;;
66163;SDS011;52962;51.088;3.096;2023-07-02T12:55:57;6.35;;;1.48;;
66163;SDS011;52962;51.088;3.096;2023-07-02T12:58:25;5.35;;;2.42;;
66163;SDS011;52962;51.088;3.096;2023-07-02T13:00:53;1.60;;;1.30;;
66163;SDS011;52962;51.088;3.096;2023-07-02T13:03:23;5.47;;;1.67;;
66163;SDS011;52962;51.088;3.096;2023-07-02T13:05:52;4.72;;;2.05;;
66163;SDS011;52962;51.088;3.096;2023-07-02T13:08:20;2.03;;;1.60;;
66163;SDS011;52962;51.088;3.096;2023-07-02T13:10:49;2.95;;;1.85;;
66163;SDS011;52962;51.088;3.096;2023-07-02T13:13:17;5.38;;;1.75;;
66163;SDS011;52962;51.088;3.096;2023-07-02T13:15:50;4.05;;;2.03;;
66163;SDS011;52962;51.088;3.096;2023-07-02T13:18:19;4.43;;;1.50;;
66163;SDS011;52962;51.088;3.096;2023-07-02T13:20:48;3.28;;;1.70;;
66163;SDS011;52962;51.088;3.096;2023-07-02T13:23:17;1.25;;;1.05;;
66163;SDS011;52962;51.088;3.096;2023-07-02T13:25:45;1.33;;;1.23;;
66163;SDS011;52962;51.088;3.096;2023-07-02T13:28:14;3.40;;;2.15;;
66163;SDS011;52962;51.088;3.096;2023-07-02T13:30:42;2.45;;;1.77;;
66163;SDS011;52962;51.088;3.096;2023-07-02T13:33:11;5.13;;;1.50;;
66163;SDS011;52962;51.088;3.096;2023-07-02T13:35:39;2.78;;;1.70;;
66163;SDS011;52962;51.088;3.096;2023-07-02T13:38:09;2.72;;;1.30;;
66163;SDS011;52962;51.088;3.096;2023-07-02T13:40:37;2.17;;;1.42;;
66163;SDS011;52962;51.088;3.096;2023-07-02T13:43:05;3.58;;;1.45;;
66163;SDS011;52962;51.088;3.096;2023-07-02T13:45:34;2.28;;;1.15;;
66163;SDS011;52962;51.088;3.096;2023-07-02T13:48:02;2.33;;;1.50;;
66163;SDS011;52962;51.088;3.096;2023-07-02T13:50:32;1.98;;;1.58;;
66163;SDS011;52962;51.088;3.096;2023-07-02T13:53:00;2.35;;;1.80;;
66163;SDS011;52962;51.088;3.096;2023-07-02T13:55:30;1.65;;;1.45;;
66163;SDS011;52962;51.088;3.096;2023-07-02T13:57:58;3.33;;;1.60;;
66163;SDS011;52962;51.088;3.096;2023-07-02T14:00:28;2.67;;;2.00;;
66163;SDS011;52962;51.088;3.096;2023-07-02T14:02:56;4.25;;;1.52;;
66163;SDS011;52962;51.088;3.096;2023-07-02T14:05:25;3.85;;;1.90;;
66163;SDS011;52962;51.088;3.096;2023-07-02T14:07:53;4.72;;;1.63;;
66163;SDS011;52962;51.088;3.096;2023-07-02T14:10:21;7.43;;;1.80;;
66163;SDS011;52962;51.088;3.096;2023-07-02T14:12:49;1.67;;;1.42;;
66163;SDS011;52962;51.088;3.096;2023-07-02T14:15:18;1.85;;;1.33;;
66163;SDS011;52962;51.088;3.096;2023-07-02T14:17:47;2.20;;;1.45;;
66163;SDS011;52962;51.088;3.096;2023-07-02T14:20:16;3.85;;;1.52;;
66163;SDS011;52962;51.088;3.096;2023-07-02T14:22:44;3.75;;;1.85;;
66163;SDS011;52962;51.088;3.096;2023-07-02T14:25:14;1.67;;;1.45;;
66163;SDS011;52962;51.088;3.096;2023-07-02T14:27:57;2.60;;;1.35;;
66163;SDS011;52962;51.088;3.096;2023-07-02T14:30:26;2.50;;;1.17;;
66163;SDS011;52962;51.088;3.096;2023-07-02T14:32:55;2.25;;;1.70;;
66163;SDS011;52962;51.088;3.096;2023-07-02T14:35:24;3.60;;;1.65;;
66163;SDS011;52962;51.088;3.096;2023-07-02T14:37:54;2.70;;;1.48;;
66163;SDS011;52962;51.088;3.096;2023-07-02T14:40:22;4.05;;;1.45;;
66163;SDS011;52962;51.088;3.096;2023-07-02T14:42:51;3.47;;;1.50;;
66163;SDS011;52962;51.088;3.096;2023-07-02T14:45:19;1.85;;;1.10;;
66163;SDS011;52962;51.088;3.096;2023-07-02T14:47:47;3.22;;;1.52;;
66163;SDS011;52962;51.088;3.096;2023-07-02T14:50:17;1.42;;;1.23;;
66163;SDS011;52962;51.088;3.096;2023-07-02T14:52:45;2.28;;;1.80;;
66163;SDS011;52962;51.088;3.096;2023-07-02T14:55:13;1.40;;;1.27;;
66163;SDS011;52962;51.088;3.096;2023-07-02T14:57:42;1.80;;;1.10;;
66163;SDS011;52962;51.088;3.096;2023-07-02T15:00:10;8.68;;;1.58;;
66163;SDS011;52962;51.088;3.096;2023-07-02T15:02:40;1.60;;;1.50;;
66163;SDS011;52962;51.088;3.096;2023-07-02T15:05:08;1.42;;;1.33;;
66163;SDS011;52962;51.088;3.096;2023-07-02T15:07:39;3.72;;;1.27;;
66163;SDS011;52962;51.088;3.096;2023-07-02T15:10:07;1.63;;;1.05;;
66163;SDS011;52962;51.088;3.096;2023-07-02T15:12:35;4.65;;;0.95;;
66163;SDS011;52962;51.088;3.096;2023-07-02T15:15:04;3.60;;;1.00;;
66163;SDS011;52962;51.088;3.096;2023-07-02T15:17:35;1.48;;;1.10;;
66163;SDS011;52962;51.088;3.096;2023-07-02T15:20:04;1.58;;;1.10;;